Terminal Aerodrome Forecast
Issued by NWS Buffalo, NY

Home | Current Version | Previous Version | Text Only | Print | Product List | Glossary On
Versions: 1 2 3 4 5 6 7 8 9 10 11 12 13 14 15 16 17 18 19 20 21 22
058
FTUS41 KBUF 181738
TAFROC
TAF
KROC 181738Z 1818/1918 24014G21KT P6SM FEW045 SCT200
     FM182300 25013KT P6SM FEW060 SCT250
     FM190300 24004KT P6SM FEW025 SCT250
     FM191500 25013KT P6SM FEW040 SCT250
     FM191700 26013KT P6SM BKN040 BKN250=

USA.gov is the U.S. government's official web portal to all federal, state and local government web resources and services.